createdAt,value
2022-11-05T12:07:45.675Z,23.80
2022-11-05T12:10:22.130Z,23.80
2022-11-05T12:13:20.687Z,23.20
2022-11-05T12:15:53.988Z,23.00
2022-11-05T12:18:34.203Z,22.50
2022-11-05T12:21:40.754Z,22.50
2022-11-05T12:24:46.285Z,22.70
2022-11-05T12:27:13.568Z,22.10
2022-11-05T12:29:57.995Z,22.20
2022-11-05T12:32:25.394Z,21.70
2022-11-05T12:35:11.608Z,21.30
2022-11-05T12:37:56.900Z,21.80
2022-11-05T12:40:43.987Z,21.50
2022-11-05T12:43:45.261Z,22.10
2022-11-05T12:46:27.354Z,21.70
2022-11-05T12:49:17.813Z,21.40
2022-11-05T12:52:05.587Z,21.40
2022-11-05T12:54:53.360Z,21.50
2022-11-05T12:57:22.299Z,21.80
2022-11-05T12:59:56.731Z,21.40
2022-11-05T13:02:30.608Z,21.20
2022-11-05T13:05:07.793Z,21.50
2022-11-05T13:07:39.871Z,21.50
2022-11-05T13:10:26.491Z,21.30
2022-11-05T13:13:19.063Z,21.30
2022-11-05T13:15:52.020Z,21.80
2022-11-05T13:18:28.053Z,21.60
2022-11-05T13:20:58.668Z,21.50
2022-11-05T13:23:35.148Z,21.30
2022-11-05T13:26:19.701Z,21.30
2022-11-05T13:29:01.543Z,21.30
2022-11-05T13:31:36.964Z,21.60
2022-11-05T13:34:11.720Z,21.70
2022-11-05T13:37:06.902Z,21.50
2022-11-05T13:39:36.308Z,21.50
2022-11-05T13:42:31.061Z,21.30
2022-11-05T13:45:04.346Z,21.40
2022-11-05T13:47:43.576Z,21.10
2022-11-05T13:50:31.459Z,21.20
2022-11-05T13:53:31.591Z,21.30
2022-11-05T13:56:11.141Z,21.20
2022-11-05T13:59:25.917Z,21.10
2022-11-05T14:02:01.110Z,21.30
2022-11-05T14:04:44.645Z,21.10
2022-11-05T14:07:19.627Z,21.30
2022-11-05T14:09:53.171Z,21.00
2022-11-05T14:12:30.737Z,20.90
2022-11-05T14:15:22.771Z,20.80
2022-11-05T14:18:35.585Z,20.60
2022-11-05T14:21:04.989Z,20.40
2022-11-05T14:23:49.956Z,20.20
2022-11-05T14:26:37.681Z,20.00
2022-11-05T14:29:05.006Z,20.00
2022-11-05T14:32:08.307Z,20.10
2022-11-05T14:34:44.800Z,19.90
2022-11-05T14:37:29.019Z,19.90
2022-11-05T14:39:57.441Z,19.80
2022-11-05T14:42:31.598Z,19.60
2022-11-05T14:45:05.685Z,19.60
2022-11-05T14:47:40.701Z,19.50
2022-11-05T14:50:17.653Z,19.40
2022-11-05T14:52:53.807Z,19.50
2022-11-05T14:55:31.491Z,19.20
2022-11-05T15:00:29.308Z,18.80
2022-11-05T15:03:02.434Z,18.90
2022-11-05T15:05:36.284Z,18.80
2022-11-05T15:08:31.715Z,18.70
2022-11-05T15:11:25.396Z,18.60
2022-11-05T15:14:03.739Z,18.70
2022-11-05T15:16:44.709Z,18.60
2022-11-05T15:19:21.634Z,18.50
2022-11-05T15:21:50.983Z,18.60
2022-11-05T15:24:19.816Z,18.60
2022-11-05T15:27:21.185Z,18.30
2022-11-05T15:29:48.619Z,18.30
2022-11-05T15:32:33.361Z,18.10
2022-11-05T15:35:17.271Z,18.10
2022-11-05T15:37:54.614Z,18.10
2022-11-05T15:40:27.941Z,18.10
2022-11-05T15:43:22.174Z,18.00
2022-11-05T15:45:58.552Z,18.10
2022-11-05T15:48:26.050Z,18.10
2022-11-05T15:50:53.599Z,18.00
2022-11-05T15:53:56.170Z,18.00
2022-11-05T15:56:33.978Z,18.10
2022-11-05T15:59:06.716Z,18.00
2022-11-05T16:01:37.334Z,17.90
2022-11-05T16:04:30.346Z,17.80
2022-11-05T16:07:07.719Z,17.80
2022-11-05T16:09:40.000Z,17.70
2022-11-05T16:12:14.909Z,17.70
2022-11-05T16:14:42.754Z,17.70
2022-11-05T16:17:18.437Z,17.60
2022-11-05T16:19:46.564Z,17.60
2022-11-05T16:22:14.507Z,17.50
2022-11-05T17:14:46.139Z,16.90
2022-11-05T17:22:09.935Z,16.40
2022-11-05T17:24:38.880Z,16.60
2022-11-05T17:27:06.324Z,16.40
2022-11-05T17:34:29.135Z,16.00
2022-11-05T17:36:56.468Z,16.00
2022-11-05T17:39:28.709Z,15.90
2022-11-05T17:41:58.703Z,16.00
2022-11-05T17:44:26.483Z,15.90
2022-11-05T17:46:54.054Z,15.90
2022-11-05T17:49:21.410Z,15.70
2022-11-05T17:51:50.878Z,15.70
2022-11-05T17:54:18.214Z,15.60
2022-11-05T17:56:45.520Z,15.70
2022-11-05T17:59:13.036Z,15.70
2022-11-05T18:01:43.700Z,15.50
2022-11-05T18:04:11.761Z,15.60
2022-11-05T18:06:40.552Z,15.50
2022-11-05T18:09:09.977Z,15.40
2022-11-05T18:11:38.862Z,15.40
2022-11-05T18:14:06.454Z,15.40
2022-11-05T18:16:33.971Z,15.40
2022-11-05T18:19:01.467Z,15.30
2022-11-05T18:21:28.792Z,15.30
2022-11-05T18:23:56.449Z,15.20
2022-11-05T18:26:23.792Z,15.10
2022-11-05T18:28:53.443Z,15.10
2022-11-05T19:11:33.640Z,14.60
2022-11-05T19:14:01.047Z,14.50
2022-11-05T19:16:30.190Z,14.40
2022-11-05T19:19:03.204Z,14.50
2022-11-05T19:21:30.779Z,14.40
2022-11-05T19:24:01.420Z,14.40
2022-11-05T19:26:29.852Z,14.50
2022-11-05T19:28:59.336Z,14.40
2022-11-05T19:31:27.484Z,14.30
2022-11-05T19:33:55.617Z,14.20
2022-11-05T19:36:24.577Z,14.30
2022-11-05T19:39:00.515Z,14.30
2022-11-05T19:41:28.336Z,14.10
2022-11-05T19:43:58.027Z,14.20
2022-11-05T19:46:25.898Z,14.20
2022-11-05T19:48:53.961Z,14.10
2022-11-05T19:51:27.688Z,14.00
2022-11-05T19:53:55.350Z,14.10
2022-11-05T19:56:31.636Z,14.10
2022-11-05T19:58:59.709Z,14.10
2022-11-05T20:01:29.004Z,14.20
2022-11-05T20:03:58.260Z,14.20
2022-11-05T20:06:32.958Z,14.10
2022-11-05T20:11:56.201Z,14.10
2022-11-05T20:36:44.910Z,13.70
2022-11-05T20:39:12.309Z,13.80
2022-11-05T21:36:07.759Z,13.50
2022-11-05T21:38:35.349Z,13.70
2022-11-05T21:43:30.575Z,13.30
2022-11-05T21:56:47.854Z,13.40
2022-11-05T22:04:37.026Z,13.20
2022-11-05T23:06:42.596Z,13.00
2022-11-05T23:12:08.773Z,12.80
2022-11-05T23:14:36.687Z,12.80
2022-11-05T23:17:22.889Z,12.90
2022-11-05T23:27:54.320Z,12.90
2022-11-05T23:35:42.351Z,12.60
2022-11-05T23:41:19.592Z,12.80
2022-11-05T23:44:05.925Z,12.80
2022-11-05T23:46:51.964Z,12.70
2022-11-05T23:49:19.366Z,12.70
2022-11-05T23:51:46.893Z,12.60
2022-11-05T23:54:14.245Z,12.70
2022-11-05T23:56:41.660Z,12.80
2022-11-05T23:59:09.017Z,12.80
